createdAt,value
2022-09-15T00:01:40.974Z,13.10
2022-09-15T00:04:10.174Z,13.63
2022-09-15T00:06:38.496Z,12.10
2022-09-15T00:09:07.136Z,11.93
2022-09-15T00:11:37.606Z,12.23
2022-09-15T00:14:09.044Z,13.23
2022-09-15T00:16:37.884Z,13.83
2022-09-15T00:19:07.427Z,13.50
2022-09-15T00:21:38.532Z,14.03
2022-09-15T00:24:07.787Z,13.37
2022-09-15T00:26:37.147Z,14.07
2022-09-15T00:29:06.095Z,14.37
2022-09-15T00:31:35.725Z,14.67
2022-09-15T00:34:04.829Z,17.90
2022-09-15T00:36:33.434Z,15.07
2022-09-15T00:39:01.759Z,15.30
2022-09-15T00:41:30.754Z,13.73
2022-09-15T00:44:01.146Z,13.20
2022-09-15T00:46:35.978Z,13.93
2022-09-15T00:49:08.147Z,13.60
2022-09-15T00:51:41.302Z,13.67
2022-09-15T00:54:19.795Z,14.50
2022-09-15T00:56:50.798Z,13.77
2022-09-15T00:59:24.040Z,13.23
2022-09-15T01:01:59.541Z,12.57
2022-09-15T01:04:28.503Z,12.97
2022-09-15T01:07:00.154Z,13.27
2022-09-15T01:09:34.257Z,16.00
2022-09-15T01:12:03.507Z,13.60
2022-09-15T01:14:31.855Z,13.93
2022-09-15T01:17:06.927Z,16.70
2022-09-15T01:20:16.039Z,18.30
2022-09-15T01:22:56.829Z,15.27
2022-09-15T01:25:41.495Z,14.93
2022-09-15T01:28:34.466Z,13.97
2022-09-15T01:31:10.976Z,14.27
2022-09-15T01:33:45.128Z,13.10
2022-09-15T01:36:20.104Z,13.20
2022-09-15T01:38:55.734Z,11.93
2022-09-15T01:41:28.626Z,11.87
2022-09-15T01:44:02.453Z,12.27
2022-09-15T01:46:36.175Z,12.50
2022-09-15T01:49:06.891Z,12.80
2022-09-15T01:51:36.987Z,13.17
2022-09-15T01:54:07.650Z,13.37
2022-09-15T01:56:38.105Z,12.97
2022-09-15T01:59:07.136Z,13.90
2022-09-15T02:01:43.893Z,13.40
2022-09-15T02:04:18.050Z,14.43
2022-09-15T02:06:53.958Z,13.47
2022-09-15T02:09:26.535Z,12.60
2022-09-15T02:12:02.313Z,11.67
2022-09-15T02:14:47.338Z,12.10
2022-09-15T02:17:19.828Z,11.80
2022-09-15T02:19:52.327Z,11.27
2022-09-15T02:22:25.038Z,12.30
2022-09-15T02:24:58.966Z,15.50
2022-09-15T02:27:32.168Z,13.00
2022-09-15T02:30:06.052Z,11.93
2022-09-15T02:32:38.054Z,12.17
2022-09-15T02:35:08.240Z,12.43
2022-09-15T02:37:38.563Z,12.20
2022-09-15T02:40:09.007Z,12.43
2022-09-15T02:42:38.516Z,11.20
2022-09-15T02:45:07.365Z,11.03
2022-09-15T02:47:36.982Z,11.23
2022-09-15T02:50:05.983Z,10.40
2022-09-15T02:52:34.264Z,10.47
2022-09-15T02:55:02.594Z,9.20
2022-09-15T02:57:30.855Z,8.87
2022-09-15T03:00:14.673Z,9.03
2022-09-15T03:02:47.164Z,8.90
2022-09-15T03:05:17.857Z,9.13
2022-09-15T03:07:46.167Z,9.27
2022-09-15T03:10:15.253Z,8.17
2022-09-15T03:12:46.424Z,8.63
2022-09-15T03:15:16.919Z,8.43
2022-09-15T03:17:48.235Z,7.73
2022-09-15T03:20:20.145Z,7.80
2022-09-15T03:22:49.629Z,7.13
2022-09-15T03:25:18.700Z,7.60
2022-09-15T03:27:47.144Z,7.00
2022-09-15T03:30:15.914Z,6.63
2022-09-15T03:32:44.184Z,6.57
2022-09-15T03:35:13.817Z,6.00
2022-09-15T03:37:42.065Z,6.20
2022-09-15T03:40:11.543Z,6.73
2022-09-15T03:42:39.980Z,6.03
2022-09-15T03:45:09.153Z,6.23
2022-09-15T03:47:37.424Z,6.27
2022-09-15T03:50:06.861Z,6.73
2022-09-15T03:52:36.483Z,6.40
2022-09-15T03:55:04.987Z,6.03
2022-09-15T03:57:33.261Z,5.73
2022-09-15T04:00:01.498Z,6.33
2022-09-15T04:02:33.015Z,6.03
2022-09-15T04:05:02.701Z,6.20
2022-09-15T04:07:31.066Z,6.17
2022-09-15T04:10:01.080Z,5.57
2022-09-15T04:12:32.389Z,5.30
2022-09-15T04:15:00.815Z,5.50
2022-09-15T04:17:29.508Z,5.27
2022-09-15T04:19:57.847Z,5.20
2022-09-15T04:22:26.280Z,5.67
2022-09-15T04:24:54.835Z,5.20
2022-09-15T04:27:24.346Z,5.10
2022-09-15T04:29:53.002Z,5.87
2022-09-15T04:32:22.118Z,5.33
2022-09-15T04:34:50.332Z,4.97
2022-09-15T04:37:18.964Z,5.47
2022-09-15T04:39:47.360Z,5.63
2022-09-15T04:42:15.755Z,5.30
2022-09-15T04:44:45.421Z,4.80
2022-09-15T04:47:13.716Z,4.67
2022-09-15T04:49:41.993Z,5.00
2022-09-15T04:52:10.287Z,4.73
2022-09-15T04:54:38.800Z,4.10
2022-09-15T04:57:07.167Z,4.10
2022-09-15T04:59:35.638Z,3.93
2022-09-15T05:02:06.116Z,4.20
2022-09-15T05:04:34.973Z,3.90
2022-09-15T05:07:03.488Z,3.60
2022-09-15T05:09:31.864Z,3.77
2022-09-15T05:12:00.197Z,3.67
2022-09-15T05:14:28.530Z,3.73
2022-09-15T05:16:56.814Z,3.87
2022-09-15T05:19:26.519Z,3.37
2022-09-15T05:21:54.751Z,2.87
2022-09-15T05:24:23.243Z,2.70
2022-09-15T05:26:51.633Z,2.70
2022-09-15T05:29:20.175Z,2.40
2022-09-15T05:31:48.562Z,2.00
2022-09-15T05:34:16.984Z,2.57
2022-09-15T05:36:46.545Z,2.83
2022-09-15T05:39:14.833Z,3.20
2022-09-15T05:41:43.104Z,2.60
2022-09-15T05:44:12.298Z,2.40
2022-09-15T05:46:40.868Z,2.70
2022-09-15T05:49:11.723Z,2.83
2022-09-15T05:51:40.025Z,3.27
2022-09-15T05:54:09.667Z,3.50
2022-09-15T05:56:37.983Z,3.57
2022-09-15T05:59:06.277Z,3.70
2022-09-15T06:01:34.553Z,4.23
2022-09-15T06:04:03.086Z,4.60
2022-09-15T06:06:32.672Z,5.70
2022-09-15T06:09:01.960Z,5.83
2022-09-15T06:11:33.817Z,6.33
2022-09-15T06:14:03.236Z,6.60
2022-09-15T06:16:34.318Z,6.63
2022-09-15T06:19:03.559Z,6.00
2022-09-15T06:21:33.346Z,6.17
2022-09-15T06:24:03.410Z,5.80
2022-09-15T06:26:33.190Z,5.50
2022-09-15T06:29:03.294Z,4.80
2022-09-15T06:31:33.481Z,4.47
2022-09-15T06:34:02.426Z,4.32
2022-09-15T06:36:31.527Z,5.95
2022-09-15T06:39:00.829Z,6.23
2022-09-15T06:41:47.078Z,7.43
2022-09-15T06:44:20.968Z,8.60
2022-09-15T06:46:50.045Z,8.73
2022-09-15T06:49:18.925Z,9.05
2022-09-15T06:51:47.218Z,8.75
2022-09-15T06:54:17.154Z,7.15
2022-09-15T06:56:46.050Z,7.25
2022-09-15T06:59:15.244Z,7.47
2022-09-15T07:01:44.939Z,7.65
2022-09-15T07:04:13.405Z,9.07
2022-09-15T07:06:41.765Z,7.70
2022-09-15T07:09:11.857Z,7.80
2022-09-15T07:11:40.384Z,8.00
2022-09-15T07:14:08.724Z,8.57
2022-09-15T07:16:37.158Z,8.07
2022-09-15T07:19:06.823Z,8.23
2022-09-15T07:21:35.541Z,8.15
2022-09-15T07:24:07.366Z,8.50
2022-09-15T07:26:36.436Z,9.98
2022-09-15T07:29:07.385Z,10.00
2022-09-15T07:31:38.958Z,10.52
2022-09-15T07:34:08.825Z,10.77
2022-09-15T07:36:37.392Z,11.02
2022-09-15T07:39:06.732Z,11.10
2022-09-15T07:41:35.194Z,11.23
2022-09-15T07:44:03.981Z,10.77
2022-09-15T07:46:33.625Z,10.55
2022-09-15T07:49:03.430Z,10.50
2022-09-15T07:51:33.178Z,10.80
2022-09-15T07:54:01.744Z,10.43
2022-09-15T07:56:30.417Z,10.05
2022-09-15T07:58:58.919Z,9.90
2022-09-15T08:01:27.649Z,9.88
2022-09-15T08:03:56.116Z,10.37
2022-09-15T08:06:26.867Z,10.13
2022-09-15T08:09:00.850Z,11.13
2022-09-15T08:11:30.292Z,10.80
2022-09-15T08:14:03.325Z,9.10
2022-09-15T08:16:31.722Z,8.95
2022-09-15T08:19:02.030Z,9.13
2022-09-15T08:21:30.418Z,8.48
2022-09-15T08:24:01.570Z,8.77
2022-09-15T08:26:31.132Z,11.07
2022-09-15T08:29:00.732Z,10.25
2022-09-15T08:31:29.184Z,10.30
2022-09-15T08:33:57.880Z,9.77
2022-09-15T08:36:28.214Z,9.90
2022-09-15T08:38:57.436Z,9.55
2022-09-15T08:41:30.746Z,9.40
2022-09-15T08:44:06.115Z,9.10
2022-09-15T08:46:40.673Z,9.82
2022-09-15T08:49:14.267Z,9.43
2022-09-15T08:51:47.313Z,9.95
2022-09-15T08:54:21.430Z,8.45
2022-09-15T08:56:51.426Z,8.35
2022-09-15T08:59:21.299Z,8.23
2022-09-15T09:02:24.454Z,8.60
2022-09-15T09:05:15.699Z,8.60
2022-09-15T09:08:07.506Z,8.20
2022-09-15T09:10:46.904Z,8.45
2022-09-15T09:13:34.712Z,7.75
2022-09-15T09:16:18.958Z,8.57
2022-09-15T09:19:13.676Z,8.95
2022-09-15T09:21:47.527Z,8.63
2022-09-15T09:24:18.372Z,8.15
2022-09-15T09:26:54.465Z,7.90
2022-09-15T09:29:30.988Z,9.20
2022-09-15T09:32:00.397Z,7.32
2022-09-15T09:34:35.433Z,8.13
2022-09-15T09:37:12.774Z,7.88
2022-09-15T09:39:41.411Z,7.70
2022-09-15T09:42:16.537Z,7.60
2022-09-15T09:44:47.263Z,7.15
2022-09-15T09:47:15.558Z,7.60
2022-09-15T09:49:48.175Z,7.72
2022-09-15T09:52:34.562Z,7.43
2022-09-15T09:55:04.078Z,7.53
2022-09-15T09:57:40.520Z,7.20
2022-09-15T10:00:32.464Z,8.10
2022-09-15T10:03:12.799Z,7.85
2022-09-15T10:05:41.917Z,8.20
2022-09-15T10:08:17.903Z,7.95
2022-09-15T10:10:52.584Z,8.00
2022-09-15T10:13:21.998Z,7.75
2022-09-15T10:15:55.731Z,8.07
2022-09-15T10:18:32.106Z,7.60
2022-09-15T10:21:02.604Z,8.15
2022-09-15T10:23:33.154Z,7.20
2022-09-15T10:26:33.186Z,7.25
2022-09-15T10:29:16.415Z,7.57
2022-09-15T10:31:47.130Z,7.30
2022-09-15T10:34:31.606Z,7.13
2022-09-15T10:37:08.822Z,7.35
2022-09-15T10:39:58.795Z,7.05
2022-09-15T10:42:40.537Z,7.85
2022-09-15T10:45:18.397Z,7.78
2022-09-15T10:48:07.328Z,7.20
2022-09-15T10:50:48.814Z,6.97
2022-09-15T10:53:26.964Z,7.43
2022-09-15T10:56:03.725Z,7.38
2022-09-15T10:58:47.062Z,7.55
2022-09-15T11:01:33.417Z,7.32
2022-09-15T11:04:16.476Z,7.50
2022-09-15T11:06:51.788Z,7.40
2022-09-15T11:09:25.807Z,8.80
2022-09-15T11:12:06.555Z,8.00
2022-09-15T11:14:50.509Z,6.90
2022-09-15T11:17:38.615Z,6.85
2022-09-15T11:20:40.846Z,7.28
2022-09-15T11:23:17.705Z,6.85
2022-09-15T11:25:51.536Z,7.60
2022-09-15T11:28:23.757Z,7.10
2022-09-15T11:31:01.809Z,6.63
2022-09-15T11:33:37.195Z,6.97
2022-09-15T11:36:13.274Z,7.22
2022-09-15T11:38:48.985Z,7.22
2022-09-15T11:41:24.523Z,7.40
2022-09-15T11:44:02.893Z,7.72
2022-09-15T11:46:45.951Z,7.85
2022-09-15T11:49:18.345Z,8.35
2022-09-15T11:51:53.245Z,7.63
2022-09-15T11:54:31.398Z,8.27
2022-09-15T11:57:01.304Z,8.43
2022-09-15T11:59:36.604Z,8.98
2022-09-15T12:02:18.103Z,9.83
2022-09-15T12:04:59.122Z,9.40
2022-09-15T12:07:32.925Z,9.33
2022-09-15T12:10:08.114Z,9.27
2022-09-15T12:12:37.188Z,9.13
2022-09-15T12:15:06.424Z,10.95
2022-09-15T12:17:42.125Z,11.23
2022-09-15T12:20:19.835Z,9.90
2022-09-15T12:22:55.965Z,10.38
2022-09-15T12:25:27.764Z,10.38
2022-09-15T12:28:28.274Z,9.67
2022-09-15T12:31:27.467Z,9.90
2022-09-15T12:33:57.768Z,10.05
2022-09-15T12:36:46.911Z,9.87
2022-09-15T12:39:25.771Z,9.63
2022-09-15T12:41:56.477Z,9.82
2022-09-15T12:44:33.829Z,10.02
2022-09-15T12:47:04.224Z,8.18
2022-09-15T12:49:36.677Z,8.25
2022-09-15T12:52:07.933Z,8.60
2022-09-15T12:54:40.926Z,8.90
2022-09-15T12:57:20.363Z,8.60
2022-09-15T12:59:48.783Z,9.97
2022-09-15T13:02:45.814Z,9.30
2022-09-15T13:05:14.526Z,10.00
2022-09-15T13:07:59.276Z,9.17
2022-09-15T13:10:39.516Z,9.40
2022-09-15T13:13:23.831Z,10.37
2022-09-15T13:15:54.776Z,9.17
2022-09-15T13:18:24.695Z,9.63
2022-09-15T13:20:59.313Z,8.13
2022-09-15T13:23:29.914Z,10.67
2022-09-15T13:26:01.475Z,9.13
2022-09-15T13:28:29.986Z,9.70
2022-09-15T13:31:14.597Z,9.90
2022-09-15T13:40:34.700Z,9.20
2022-09-15T13:43:33.843Z,8.77
2022-09-15T13:46:18.615Z,8.97
2022-09-15T13:48:57.996Z,9.27
2022-09-15T13:51:29.316Z,9.20
2022-09-15T13:54:00.555Z,8.70
2022-09-15T13:56:31.104Z,8.70
2022-09-15T13:59:10.451Z,9.10
2022-09-15T14:01:43.427Z,8.37
2022-09-15T14:04:16.680Z,8.90
2022-09-15T14:06:47.048Z,8.90
2022-09-15T14:09:19.159Z,9.30
2022-09-15T14:11:49.884Z,8.90
2022-09-15T14:14:37.250Z,9.53
2022-09-15T14:17:06.255Z,9.70
2022-09-15T14:19:37.243Z,9.73
2022-09-15T14:22:26.216Z,10.20
2022-09-15T14:24:56.425Z,9.20
2022-09-15T14:27:28.910Z,9.90
2022-09-15T14:30:02.783Z,9.17
2022-09-15T14:32:35.463Z,10.00
2022-09-15T14:35:08.726Z,9.60
2022-09-15T14:37:37.254Z,10.07
2022-09-15T14:40:20.643Z,10.33
2022-09-15T14:42:48.984Z,10.43
2022-09-15T14:48:15.339Z,10.37
2022-09-15T14:50:45.075Z,10.20
2022-09-15T14:53:17.494Z,10.47
2022-09-15T14:55:54.107Z,10.87
2022-09-15T14:58:25.436Z,10.60
2022-09-15T15:01:01.610Z,11.00
2022-09-15T15:03:36.480Z,10.77
2022-09-15T15:06:28.934Z,10.83
2022-09-15T15:09:03.233Z,10.40
2022-09-15T15:11:34.346Z,10.83
2022-09-15T15:14:06.845Z,10.77
2022-09-15T15:16:36.893Z,10.53
2022-09-15T15:19:05.262Z,10.30
2022-09-15T15:21:41.262Z,10.90
2022-09-15T15:24:21.104Z,10.10
2022-09-15T15:26:50.582Z,10.07
2022-09-15T15:29:48.917Z,10.40
2022-09-15T15:32:22.383Z,9.93
2022-09-15T15:34:52.318Z,10.17
2022-09-15T15:37:29.187Z,10.37
2022-09-15T15:39:58.386Z,10.20
2022-09-15T15:42:28.970Z,9.80
2022-09-15T15:45:02.846Z,9.90
2022-09-15T15:47:36.346Z,10.40
2022-09-15T15:50:13.596Z,10.10
2022-09-15T15:52:43.741Z,10.07
2022-09-15T15:55:15.158Z,10.47
2022-09-15T15:57:43.826Z,10.50
2022-09-15T16:00:24.445Z,10.67
2022-09-15T16:02:54.515Z,10.30
2022-09-15T16:05:27.696Z,12.00
2022-09-15T16:07:57.833Z,11.53
2022-09-15T16:10:31.338Z,11.67
2022-09-15T16:12:59.733Z,10.63
2022-09-15T16:15:28.718Z,11.00
2022-09-15T16:17:58.264Z,10.73
2022-09-15T16:20:29.269Z,10.90
2022-09-15T16:22:58.136Z,10.80
2022-09-15T16:25:35.313Z,10.80
2022-09-15T16:28:04.178Z,10.20
2022-09-15T16:30:33.288Z,10.30
2022-09-15T16:33:03.019Z,10.10
2022-09-15T16:35:39.365Z,10.03
2022-09-15T16:38:09.207Z,10.63
2022-09-15T16:40:38.081Z,10.20
2022-09-15T16:43:10.243Z,10.50
2022-09-15T16:45:40.893Z,10.60
2022-09-15T16:48:11.284Z,10.93
2022-09-15T16:50:50.286Z,11.33
2022-09-15T16:53:26.717Z,11.13
2022-09-15T16:55:56.344Z,11.30
2022-09-15T16:58:24.862Z,12.13
2022-09-15T17:00:53.779Z,11.77
2022-09-15T17:03:25.397Z,12.03
2022-09-15T17:05:55.725Z,12.00
2022-09-15T17:08:27.239Z,11.50
2022-09-15T17:10:58.344Z,11.43
2022-09-15T17:13:30.337Z,12.13
2022-09-15T17:15:59.792Z,11.57
2022-09-15T17:18:30.355Z,11.40
2022-09-15T17:20:59.086Z,11.87
2022-09-15T17:23:28.858Z,10.97
2022-09-15T17:25:59.153Z,11.27
2022-09-15T17:28:29.647Z,10.80
2022-09-15T17:30:59.914Z,11.70
2022-09-15T17:33:31.104Z,11.50
2022-09-15T17:36:00.139Z,11.63
2022-09-15T17:38:28.524Z,12.13
2022-09-15T17:40:57.169Z,12.60
2022-09-15T17:43:27.188Z,12.10
2022-09-15T17:45:56.089Z,12.70
2022-09-15T17:48:25.668Z,12.30
2022-09-15T17:50:55.536Z,12.40
2022-09-15T17:53:26.797Z,11.33
2022-09-15T17:55:56.517Z,12.37
2022-09-15T17:58:26.767Z,12.00
2022-09-15T18:00:55.514Z,11.37
2022-09-15T18:03:27.903Z,11.33
2022-09-15T18:05:59.411Z,12.03
2022-09-15T18:08:28.874Z,11.10
2022-09-15T18:10:57.365Z,11.30
2022-09-15T18:13:27.662Z,11.60
2022-09-15T18:15:56.521Z,11.07
2022-09-15T18:18:26.363Z,11.20
2022-09-15T18:20:57.978Z,11.23
2022-09-15T18:23:29.624Z,11.10
2022-09-15T18:25:58.228Z,11.00
2022-09-15T18:28:26.644Z,11.07
2022-09-15T18:30:54.937Z,11.03
2022-09-15T18:33:25.634Z,10.63
2022-09-15T18:35:58.903Z,12.00
2022-09-15T18:38:27.706Z,10.90
2022-09-15T18:40:57.776Z,10.30
2022-09-15T18:43:28.484Z,10.27
2022-09-15T18:46:00.219Z,10.80
2022-09-15T18:48:28.927Z,10.10
2022-09-15T18:50:59.223Z,10.53
2022-09-15T18:53:27.622Z,10.00
2022-09-15T18:55:55.928Z,9.27
2022-09-15T18:58:24.275Z,9.57
2022-09-15T19:00:52.678Z,9.80
2022-09-15T19:03:20.933Z,10.00
2022-09-15T19:05:49.976Z,9.97
2022-09-15T19:08:19.593Z,10.27
2022-09-15T19:10:56.958Z,9.77
2022-09-15T19:13:25.470Z,9.97
2022-09-15T19:15:53.881Z,9.90
2022-09-15T19:18:22.324Z,10.60
2022-09-15T19:20:50.638Z,10.60
2022-09-15T19:23:20.247Z,10.10
2022-09-15T19:25:49.016Z,10.70
2022-09-15T19:28:17.295Z,9.77
2022-09-15T19:30:45.715Z,10.77
2022-09-15T19:33:14.284Z,10.73
2022-09-15T19:35:43.015Z,10.53
2022-09-15T19:38:11.338Z,11.00
2022-09-15T19:40:40.936Z,10.60
2022-09-15T19:43:09.677Z,10.90
2022-09-15T19:45:38.199Z,10.63
2022-09-15T19:48:06.526Z,10.60
2022-09-15T19:50:34.840Z,10.60
2022-09-15T19:53:03.178Z,10.30
2022-09-15T19:55:34.246Z,10.27
2022-09-15T19:58:03.889Z,9.93
2022-09-15T20:00:32.254Z,10.17
2022-09-15T20:03:00.612Z,9.80
2022-09-15T20:05:34.725Z,9.50
2022-09-15T20:08:03.773Z,9.87
2022-09-15T20:10:32.205Z,10.03
2022-09-15T20:13:00.453Z,10.20
2022-09-15T20:15:30.038Z,9.20
2022-09-15T20:17:58.336Z,9.20
2022-09-15T20:20:26.579Z,9.60
2022-09-15T20:22:54.796Z,9.77
2022-09-15T20:25:24.030Z,10.07
2022-09-15T20:27:52.744Z,10.07
2022-09-15T20:30:21.432Z,10.03
2022-09-15T20:32:50.985Z,9.97
2022-09-15T20:35:19.247Z,10.00
2022-09-15T20:37:49.528Z,9.97
2022-09-15T20:40:18.119Z,10.00
2022-09-15T20:42:47.715Z,10.20
2022-09-15T20:45:16.486Z,9.73
2022-09-15T20:47:44.778Z,10.10
2022-09-15T20:50:14.628Z,9.90
2022-09-15T20:52:42.904Z,9.53
2022-09-15T20:55:11.154Z,9.53
2022-09-15T20:57:39.405Z,9.70
2022-09-15T21:00:10.447Z,9.80
2022-09-15T21:02:39.312Z,9.40
2022-09-15T21:05:08.866Z,9.63
2022-09-15T21:07:38.416Z,10.00
2022-09-15T21:10:08.055Z,8.73
2022-09-15T21:12:36.355Z,9.20
2022-09-15T21:15:05.031Z,9.20
2022-09-15T21:17:33.290Z,9.10
2022-09-15T21:20:01.587Z,9.23
2022-09-15T21:22:29.940Z,9.37
2022-09-15T21:24:59.645Z,9.10
2022-09-15T21:27:28.852Z,9.13
2022-09-15T21:29:57.398Z,9.87
2022-09-15T21:32:25.656Z,9.50
2022-09-15T21:34:56.081Z,9.33
2022-09-15T21:37:27.078Z,9.87
2022-09-15T21:39:55.979Z,9.30
2022-09-15T21:42:26.008Z,9.67
2022-09-15T21:44:54.671Z,9.47
2022-09-15T21:47:23.235Z,9.00
2022-09-15T21:49:52.343Z,9.20
2022-09-15T21:52:21.228Z,9.17
2022-09-15T21:54:49.485Z,9.50
2022-09-15T21:57:18.009Z,8.90
2022-09-15T21:59:47.605Z,8.77
2022-09-15T22:02:17.412Z,8.70
2022-09-15T22:04:45.992Z,8.63
2022-09-15T22:07:19.256Z,8.77
2022-09-15T22:09:48.225Z,8.77
2022-09-15T22:12:16.514Z,8.90
2022-09-15T22:14:44.876Z,8.80
2022-09-15T22:17:15.049Z,9.40
2022-09-15T22:19:43.362Z,8.77
2022-09-15T22:22:12.067Z,8.67
2022-09-15T22:24:40.476Z,8.87
2022-09-15T22:27:08.833Z,9.63
2022-09-15T22:29:37.210Z,8.90
2022-09-15T22:32:05.704Z,8.87
2022-09-15T22:34:35.214Z,9.47
2022-09-15T22:37:03.584Z,9.47
2022-09-15T22:39:50.555Z,9.40
2022-09-15T22:42:20.159Z,9.60
2022-09-15T22:44:48.520Z,8.70
2022-09-15T22:47:16.791Z,9.27
2022-09-15T22:49:46.575Z,9.60
2022-09-15T22:52:14.936Z,9.20
2022-09-15T22:54:43.568Z,9.23
2022-09-15T22:57:11.897Z,9.30
2022-09-15T22:59:40.226Z,9.40
2022-09-15T23:02:08.481Z,9.90
2022-09-15T23:04:36.866Z,9.30
2022-09-15T23:07:06.526Z,9.50
2022-09-15T23:09:36.077Z,10.30
2022-09-15T23:12:05.177Z,10.07
2022-09-15T23:14:33.833Z,9.33
2022-09-15T23:17:02.105Z,9.50
2022-09-15T23:19:30.375Z,9.53
2022-09-15T23:21:58.708Z,10.40
2022-09-15T23:24:28.428Z,10.47
2022-09-15T23:26:56.775Z,11.20
2022-09-15T23:29:26.359Z,10.47
2022-09-15T23:31:54.865Z,10.70
2022-09-15T23:34:23.531Z,10.87
2022-09-15T23:36:51.775Z,11.17
2022-09-15T23:39:20.546Z,11.73
2022-09-15T23:41:50.180Z,11.70
2022-09-15T23:44:18.487Z,10.97
2022-09-15T23:46:46.810Z,11.03
2022-09-15T23:49:18.553Z,11.83
2022-09-15T23:51:47.119Z,11.63
2022-09-15T23:54:15.586Z,11.97
2022-09-15T23:56:43.899Z,11.27
2022-09-15T23:59:13.455Z,11.40
